Flight Track Log - Related Links

Times and Time Zones

All times are in EDT time to prevent confusion due to time zone crossing. See the N8421U flight status page for this flight to view local times or setup timezone preferences in your user account.


Time Position Orientation Groundspeed Altitude Reporting Facility
EDT Latitude Longitude Course Direction KTS MPH feet Rate Location/Type
Mon 02:25:35 PM 42.2258 -75.9756 337° Northwest 234 269 2,400  Level Boston Center
Mon 02:26:38 PM 42.2519 -75.9906 337° Northwest 99 114 2,700 242 Climbing Boston Center
Mon 02:27:39 PM 42.2767 -75.9850 North 92 106 2,900  Climbing Boston Center
Mon 02:28:39 PM 42.3025 -75.9803 North 93 107 2,700 -50 Descending Boston Center
Mon 02:29:40 PM 42.3283 -75.9775 North 93 107 2,800 145 Climbing Boston Center
Mon 02:30:43 PM 42.3539 -75.9772 360° North 92 106 3,000 242 Climbing Boston Center
Mon 02:31:44 PM 42.3794 -75.9772 360° North 92 106 3,300 148 Climbing Boston Center
Mon 02:32:45 PM 42.4097 -75.9817 354° North 91 105 3,300 -50 Level Boston Center
Mon 02:33:45 PM 42.4322 -75.9919 341° North 92 106 3,200 -49 Descending Boston Center
Mon 02:34:47 PM 42.4581 -75.9972 351° North 94 108 3,200  Level Boston Center
Mon 02:35:50 PM 42.4881 -75.9986 358° North 92 106 3,200 48 Level Boston Center
Mon 02:36:51 PM 42.5133 -75.9997 358° North 91 105 3,300 99 Climbing Boston Center
Mon 02:37:51 PM 42.5414 -76.0000 360° North 95 109 3,400 98 Climbing Boston Center
Mon 02:38:54 PM 42.5686 -76.0033 355° North 97 112 3,500 97 Climbing Boston Center
Mon 02:39:55 PM 42.5939 -76.0050 357° North 95 109 3,600 152 Climbing Boston Center
Mon 02:40:13 PM 42.6033 -76.0044 North 96 110 3,700 194 Climbing Boston Center
Mon 02:40:57 PM 42.6186 -76.0067 354° North 92 106 3,800  Climbing Boston Center
Mon 02:41:15 PM 42.6286 -76.0064 North 93 107 3,700 -197 Descending Boston Center
Mon 02:41:58 PM 42.6444 -76.0092 353° North 91 105 3,600 -109 Descending Boston Center
Mon 02:42:10 PM 42.6533 -76.0114 350° North 94 108 3,600 197 Level Boston Center
Mon 02:42:59 PM 42.6700 -76.0128 356° North 92 106 3,800  Climbing Boston Center
Mon 02:43:08 PM 42.6803 -76.0167 344° North 96 110 3,600 -247 Descending Boston Center
Mon 02:44:12 PM 42.7072 -76.0222 351° North 98 113 3,500 -161 Descending Boston Center
Mon 02:45:00 PM 42.7233 -76.0192 North 95 109 3,300 -200 Descending Boston Center
Mon 02:45:12 PM 42.7344 -76.0250 339° North 99 114 3,300  Level Boston Center
Mon 02:46:04 PM 42.7544 -76.0247 North 95 109 3,300  Level Boston Center
Mon 02:46:13 PM 42.7633 -76.0311 332° Northwest 96 110 3,300 -203 Level Boston Center
Mon 02:47:03 PM 42.7836 -76.0364 349° North 99 114 3,100 -305 Descending Boston Center
Mon 02:47:12 PM 42.7878 -76.0386 339° North 93 107 3,000 -476 Descending Boston Center
Mon 02:48:06 PM 42.8108 -76.0533 335° Northwest 103 119 2,600 -400 Descending Boston Center
Mon 02:48:12 PM 42.8122 -76.0464 75° East 90 104 2,600 -484 Level Boston Center
Mon 02:49:08 PM 42.8336 -76.0650 327° Northwest 98 113 2,100 -581 Descending Boston Center
Mon 02:49:14 PM 42.8361 -76.0683 316° Northwest 114 131 2,000 -300 Descending Boston Center
Mon 02:50:08 PM 42.8558 -76.0672 North 92 106 1,800 -231 Descending Boston Center
Mon 02:50:32 PM 42.8642 -76.0683 354° North 94 108 1,700 -97 Descending Boston Center
Mon 02:51:10 PM 42.8767 -76.0689 358° North 89 102 1,700 61 Level Boston Center
Mon 02:52:11 PM 42.8856 -76.0808 315° West 70 81 1,800 209 Climbing Boston Center
Mon 02:52:36 PM 42.8878 -76.0747 64° Northeast 78 90 2,000 676 Climbing Boston Center
Mon 02:53:22 PM 42.8881 -76.0408 89° East 94 108 2,600 590 Climbing Boston Center
Mon 02:53:37 PM 42.8894 -76.0406 North 89 102 2,600 436 Level Boston Center
Mon 02:54:17 PM 42.8869 -76.0086 96° East 98 113 3,000 492 Climbing Boston Center
Mon 02:54:38 PM 42.8897 -75.9972 72° East 92 106 3,100 295 Climbing Boston Center
Mon 02:55:18 PM 42.8894 -75.9686 91° East 104 120 3,300 197 Climbing Boston Center
Mon 02:55:39 PM 42.8922 -75.9614 62° Northeast 94 108 3,300 100 Level Boston Center
Mon 02:56:18 PM 42.8872 -75.9303 102° East 106 122 3,400 200 Climbing Boston Center
Mon 02:56:39 PM 42.8919 -75.9206 56° Northeast 100 115 3,500 197 Climbing Boston Center
Mon 02:57:19 PM 42.8858 -75.8892 105° East 109 125 3,600 94 Climbing Boston Center
Mon 02:57:43 PM 42.8839 -75.8744 100° East 111 128 3,600  Level Boston Center

Login

Don't have an account? Register now (free) for customized features, flight alerts, and more!